Time;durP1;ratioP1;P1;durP2;ratioP2;P2;SDS_P1;SDS_P2;PMS_P1;PMS_P2;Temp;Humidity;BMP_temperature;BMP_pressure;BME280_temperature;BME280_humidity;BME280_pressure;Samples;Min_cycle;Max_cycle;Signal;HPM_P1;HPM_P2
2024/03/23 00:02:28;;;;;;;29.48;16.08;;;;;;;11.52;68.29;99988.31;5150586;27;20043;-45
2024/03/23 00:04:58;;;;;;;33.85;16.73;;;;;;;11.65;67.83;99986.50;5150348;27;20047;-46
2024/03/23 00:07:29;;;;;;;31.77;16.98;;;;;;;11.54;68.40;99989.91;5150878;27;20443;-44
2024/03/23 00:09:59;;;;;;;30.48;17.23;;;;;;;11.52;68.49;99989.16;5150419;27;20510;-44
2024/03/23 00:12:30;;;;;;;32.35;16.90;;;;;;;11.53;68.49;99984.66;5150629;27;20043;-45
2024/03/23 00:15:00;;;;;;;33.80;16.80;;;;;;;11.58;68.28;99985.19;5150229;27;20055;-44
2024/03/23 00:17:31;;;;;;;32.22;18.45;;;;;;;11.51;68.71;99976.75;5154236;27;20065;-45
2024/03/23 00:20:01;;;;;;;35.17;18.40;;;;;;;11.45;68.38;99978.03;5137415;27;20068;-43
2024/03/23 00:22:32;;;;;;;33.00;17.80;;;;;;;11.50;68.35;99980.41;5154560;27;20145;-43
2024/03/23 00:25:02;;;;;;;34.95;19.15;;;;;;;11.50;68.30;99968.88;5154222;27;20053;-44
2024/03/23 00:27:33;;;;;;;35.08;18.98;;;;;;;11.57;68.04;99970.13;5154280;27;20039;-42
2024/03/23 00:30:03;;;;;;;31.95;18.80;;;;;;;11.43;68.52;99965.75;5154848;27;20521;-45
2024/03/23 00:32:35;;;;;;;36.00;18.90;;;;;;;11.16;70.11;99960.44;5154958;27;20085;-45
2024/03/23 00:35:05;;;;;;;34.47;19.20;;;;;;;11.18;70.25;99963.88;5154683;27;20177;-46
2024/03/23 00:37:36;;;;;;;37.28;19.63;;;;;;;11.16;70.72;99958.63;5154723;27;20065;-45
2024/03/23 00:40:06;;;;;;;33.03;18.77;;;;;;;11.07;70.98;99956.56;5154049;27;20043;-44
2024/03/23 00:42:37;;;;;;;35.65;19.88;;;;;;;10.97;71.44;99951.97;5153925;27;20039;-44
2024/03/23 00:45:08;;;;;;;37.67;20.15;;;;;;;11.09;71.03;99943.13;5154675;27;20092;-47
2024/03/23 00:47:39;;;;;;;31.52;18.77;;;;;;;11.13;70.88;99936.66;5154507;27;20114;-45
2024/03/23 00:50:09;;;;;;;37.88;20.70;;;;;;;11.12;70.81;99937.59;5154097;27;20042;-44
2024/03/23 00:52:41;;;;;;;38.42;20.20;;;;;;;11.15;70.61;99932.06;5153747;27;20493;-44
2024/03/23 00:55:08;;;;;;;35.25;19.13;;;;;;;11.07;70.71;99929.03;5153976;27;20051;-44
2024/03/23 00:57:35;;;;;;;36.03;19.98;;;;;;;11.06;70.86;99930.00;5153943;27;20054;-44
2024/03/23 01:00:01;;;;;;;38.15;20.95;;;;;;;11.09;70.52;99927.97;5153986;27;20452;-43
2024/03/23 01:02:28;;;;;;;39.97;21.58;;;;;;;11.10;70.12;99918.19;5153802;27;20134;-45
2024/03/23 01:04:55;;;;;;;35.53;20.05;;;;;;;11.15;70.03;99916.03;5153732;27;20085;-44
2024/03/23 01:07:22;;;;;;;37.13;21.23;;;;;;;11.14;70.17;99909.84;5153880;27;20351;-43
2024/03/23 01:09:50;;;;;;;41.35;21.48;;;;;;;11.16;69.90;99907.06;5154133;27;20039;-46
2024/03/23 01:12:17;;;;;;;39.25;21.95;;;;;;;11.14;69.73;99909.00;5154145;27;20130;-44
2024/03/23 01:14:43;;;;;;;38.53;21.10;;;;;;;11.12;69.85;99902.91;5153608;27;20082;-45
2024/03/23 01:17:11;;;;;;;39.67;21.92;;;;;;;11.11;69.94;99904.72;5153487;27;20043;-44
2024/03/23 01:19:39;;;;;;;40.80;21.35;;;;;;;11.06;69.85;99897.97;5153477;27;20051;-43
2024/03/23 01:22:06;;;;;;;38.90;21.42;;;;;;;11.02;70.40;99889.31;5153517;27;20051;-46
2024/03/23 01:24:32;;;;;;;35.13;21.30;;;;;;;10.96;70.24;99886.22;5153470;27;20086;-43
2024/03/23 01:27:01;;;;;;;37.38;21.00;;;;;;;10.92;70.46;99877.56;5152785;27;20095;-45
2024/03/23 01:29:27;;;;;;;36.28;21.30;;;;;;;10.99;70.34;99883.31;5152924;27;20502;-43
2024/03/23 01:31:55;;;;;;;37.53;22.02;;;;;;;10.88;70.78;99884.91;5153106;27;20047;-44
2024/03/23 01:34:21;;;;;;;37.92;22.10;;;;;;;10.86;70.95;99889.50;5152984;27;20043;-44
2024/03/23 01:36:48;;;;;;;40.00;22.02;;;;;;;10.89;70.87;99886.59;5153368;27;20130;-44
2024/03/23 01:39:15;;;;;;;37.17;22.38;;;;;;;10.86;70.78;99878.81;5153119;27;20495;-46
2024/03/23 01:41:43;;;;;;;39.90;21.48;;;;;;;10.79;71.25;99880.19;5153205;27;20418;-44
2024/03/23 01:44:11;;;;;;;40.40;22.13;;;;;;;10.77;71.53;99882.09;5152871;27;20173;-43
2024/03/23 01:46:38;;;;;;;39.10;22.80;;;;;;;10.76;71.47;99883.06;5152920;27;20047;-44
2024/03/23 01:49:05;;;;;;;38.55;22.38;;;;;;;10.77;71.63;99882.09;5152771;27;20358;-43
2024/03/23 01:51:33;;;;;;;39.85;21.90;;;;;;;10.70;71.43;99877.28;5152971;27;20089;-43
2024/03/23 01:54:03;;;;;;;41.65;22.55;;;;;;;10.66;71.68;99873.97;5152776;27;20122;-45
2024/03/23 01:56:30;;;;;;;42.33;22.63;;;;;;;10.57;72.47;99885.25;5152848;27;20050;-43
2024/03/23 01:58:56;;;;;;;36.33;22.15;;;;;;;10.57;72.30;99882.56;5152740;27;20047;-45
2024/03/23 02:01:25;;;;;;;38.05;22.02;;;;;;;10.57;72.68;99874.56;5152609;27;20053;-43
2024/03/23 02:03:51;;;;;;;40.92;21.85;;;;;;;10.63;72.50;99873.31;5152445;27;20043;-44
2024/03/23 02:06:19;;;;;;;37.20;21.10;;;;;;;10.57;72.49;99862.09;5152665;27;20085;-44
2024/03/23 02:08:45;;;;;;;37.33;21.83;;;;;;;10.53;72.84;99859.75;5152478;27;20468;-45
2024/03/23 02:11:12;;;;;;;38.47;22.45;;;;;;;10.50;73.21;99860.78;5152497;27;20046;-44
2024/03/23 02:13:38;;;;;;;40.40;21.67;;;;;;;10.50;73.42;99868.78;5152204;27;20053;-43
2024/03/23 02:16:06;;;;;;;42.58;22.13;;;;;;;10.50;73.67;99857.25;5152404;27;20502;-43
2024/03/23 02:18:34;;;;;;;39.80;22.17;;;;;;;10.55;73.07;99855.16;5152253;27;20156;-44
2024/03/23 02:21:01;;;;;;;41.63;22.38;;;;;;;10.57;73.22;99850.56;5152434;27;20038;-43
2024/03/23 02:23:29;;;;;;;40.20;22.42;;;;;;;10.55;73.34;99850.69;5152303;27;20046;-44
2024/03/23 02:25:56;;;;;;;41.10;22.05;;;;;;;10.54;73.60;99846.31;5152060;27;20064;-45
2024/03/23 02:28:22;;;;;;;35.20;20.80;;;;;;;10.56;73.68;99844.38;5151895;27;20038;-45
2024/03/23 02:30:50;;;;;;;37.60;21.73;;;;;;;10.55;73.46;99842.69;5151872;27;20046;-44
2024/03/23 02:33:16;;;;;;;37.92;21.63;;;;;;;10.59;73.72;99837.97;5151814;27;20054;-44
2024/03/23 02:35:44;;;;;;;37.88;21.85;;;;;;;10.63;73.48;99834.16;5152106;27;20140;-44
2024/03/23 02:38:10;;;;;;;38.47;22.55;;;;;;;10.66;73.66;99830.44;5151789;27;20099;-46
2024/03/23 02:40:39;;;;;;;38.28;21.83;;;;;;;10.66;73.35;99831.28;5151824;27;20043;-45
2024/03/23 02:43:05;;;;;;;42.53;21.02;;;;;;;10.60;73.57;99823.69;5151734;27;20050;-45
2024/03/23 02:45:33;;;;;;;36.90;21.42;;;;;;;10.50;74.02;99828.78;5151510;27;20061;-45
2024/03/23 02:47:59;;;;;;;37.78;22.27;;;;;;;10.51;74.20;99819.81;5152991;27;20078;-48
2024/03/23 02:50:26;;;;;;;37.03;21.88;;;;;;;10.25;75.64;99821.56;5151608;27;20042;-44
2024/03/23 02:52:52;;;;;;;38.55;22.35;;;;;;;10.37;75.97;99811.03;5151400;27;20047;-44
2024/03/23 02:55:19;;;;;;;45.40;21.77;;;;;;;10.41;75.96;99808.06;5151563;27;20090;-44
2024/03/23 02:57:47;;;;;;;39.58;21.73;;;;;;;10.28;76.65;99813.34;5151523;27;20046;-43
2024/03/23 03:00:14;;;;;;;39.17;21.45;;;;;;;10.10;78.02;99819.84;5151098;27;20134;-43
2024/03/23 03:02:41;;;;;;;36.75;20.80;;;;;;;10.08;78.93;99813.78;5151380;27;20050;-43
2024/03/23 03:05:09;;;;;;;37.88;21.88;;;;;;;10.07;79.39;99820.06;5151248;27;20061;-45
2024/03/23 03:07:37;;;;;;;38.58;21.25;;;;;;;10.15;79.63;99817.75;5151158;27;20042;-44
2024/03/23 03:10:08;;;;;;;37.92;22.05;;;;;;;10.14;79.78;99810.72;5151075;27;20043;-44
2024/03/23 03:12:34;;;;;;;34.50;20.50;;;;;;;9.92;81.20;99810.38;5151040;27;20043;-44
2024/03/23 03:15:04;;;;;;;35.30;20.73;;;;;;;9.85;82.66;99809.09;5139657;27;20051;-43
2024/03/23 03:17:31;;;;;;;33.53;20.35;;;;;;;9.92;82.50;99797.91;5130246;27;20043;-44
2024/03/23 03:19:58;;;;;;;35.97;21.33;;;;;;;9.95;82.61;99800.41;5130419;27;20518;-44
2024/03/23 03:22:24;;;;;;;33.13;20.27;;;;;;;9.87;82.83;99804.50;5130419;27;20184;-44
2024/03/23 03:24:51;;;;;;;36.30;21.23;;;;;;;9.82;83.33;99802.13;5130376;27;20051;-44
2024/03/23 03:27:18;;;;;;;34.53;20.52;;;;;;;9.86;83.47;99806.31;5130221;27;20047;-45
2024/03/23 03:29:45;;;;;;;35.20;20.40;;;;;;;10.01;82.64;99804.47;5130344;27;20532;-44
2024/03/23 03:32:13;;;;;;;37.47;21.10;;;;;;;9.99;82.77;99798.38;5130205;27;20534;-45
2024/03/23 03:34:40;;;;;;;34.17;20.40;;;;;;;9.74;84.22;99791.09;5130157;27;20054;-45
2024/03/23 03:37:06;;;;;;;36.47;21.55;;;;;;;9.77;84.58;99790.94;5130208;27;20104;-45
2024/03/23 03:39:34;;;;;;;35.60;20.77;;;;;;;9.85;84.34;99785.97;5130211;27;20043;-45
2024/03/23 03:42:01;;;;;;;38.65;20.88;;;;;;;9.95;83.60;99788.91;5130086;27;20058;-44
2024/03/23 03:44:28;;;;;;;36.17;20.67;;;;;;;9.99;83.45;99787.72;5130247;28;20085;-44
2024/03/23 03:46:55;;;;;;;33.75;20.00;;;;;;;9.96;83.75;99791.47;5130275;27;20092;-44
2024/03/23 03:49:23;;;;;;;38.63;20.67;;;;;;;9.95;83.44;99786.22;5130104;28;20047;-44
2024/03/23 03:51:49;;;;;;;33.28;20.42;;;;;;;10.01;83.55;99788.47;5132834;27;20083;-46
2024/03/23 03:54:17;;;;;;;31.80;20.52;;;;;;;10.02;83.19;99782.19;5134186;27;20058;-45
2024/03/23 03:56:43;;;;;;;31.40;19.83;;;;;;;10.01;83.37;99781.34;5134166;27;20863;-44
2024/03/23 03:59:10;;;;;;;35.40;20.63;;;;;;;9.86;84.42;99781.50;5134447;27;20051;-43
2024/03/23 04:01:38;;;;;;;36.63;20.88;;;;;;;9.90;84.47;99775.84;5133991;27;20526;-45
2024/03/23 04:04:07;;;;;;;34.60;21.63;;;;;;;9.69;85.58;99783.44;5134153;27;20261;-44
2024/03/23 04:06:35;;;;;;;35.17;20.25;;;;;;;9.73;85.63;99776.94;5134060;27;20130;-45
2024/03/23 04:09:02;;;;;;;36.95;19.63;;;;;;;9.82;85.90;99779.97;5133864;27;20050;-43
2024/03/23 04:11:29;;;;;;;37.35;20.50;;;;;;;9.80;86.00;99779.22;5133978;27;20047;-45
2024/03/23 04:13:55;;;;;;;35.72;20.75;;;;;;;9.91;85.37;99782.03;5133874;27;20043;-44
2024/03/23 04:16:28;;;;;;;32.80;19.77;;;;;;;9.95;84.70;99781.75;5133986;27;20054;-45
2024/03/23 04:18:54;;;;;;;31.70;19.23;;;;;;;9.95;84.66;99768.44;5133762;27;20496;-46
2024/03/23 04:21:23;;;;;;;32.20;19.00;;;;;;;9.81;85.29;99764.94;5133761;27;20043;-44
2024/03/23 04:23:50;;;;;;;38.53;19.45;;;;;;;9.65;86.92;99771.28;5133653;27;20055;-44
2024/03/23 04:26:21;;;;;;;30.33;19.23;;;;;;;9.79;86.22;99772.19;5133770;27;20043;-44
2024/03/23 04:28:47;;;;;;;32.88;20.20;;;;;;;9.68;86.37;99763.06;5133556;27;20047;-45
2024/03/23 04:31:14;;;;;;;28.83;18.58;;;;;;;9.74;86.83;99768.00;5133761;27;20095;-44
2024/03/23 04:33:41;;;;;;;34.65;20.27;;;;;;;9.67;87.35;99758.72;5133538;27;20165;-49
2024/03/23 04:36:09;;;;;;;32.63;19.33;;;;;;;9.78;87.03;99766.00;5133691;27;20187;-45
2024/03/23 04:38:37;;;;;;;31.90;19.23;;;;;;;9.89;85.96;99752.84;5133714;27;20054;-45
2024/03/23 04:41:05;;;;;;;28.02;18.10;;;;;;;9.88;86.11;99751.13;5134090;27;20158;-43
2024/03/23 04:43:33;;;;;;;31.15;18.85;;;;;;;9.84;86.57;99754.06;5133810;27;20054;-45
2024/03/23 04:46:00;;;;;;;29.88;18.40;;;;;;;9.80;87.24;99755.25;5133349;27;20043;-45
2024/03/23 04:48:27;;;;;;;31.40;18.80;;;;;;;9.92;86.30;99757.09;5133752;27;20047;-45
2024/03/23 04:50:57;;;;;;;29.90;17.92;;;;;;;9.86;86.38;99757.53;5133739;27;20104;-43
2024/03/23 04:53:28;;;;;;;32.13;18.55;;;;;;;9.82;87.10;99756.84;5133489;27;20051;-45
2024/03/23 04:55:55;;;;;;;31.83;18.15;;;;;;;9.80;87.47;99757.91;5133337;27;20075;-45
2024/03/23 04:58:23;;;;;;;29.40;18.00;;;;;;;9.82;87.86;99746.19;5133315;27;20415;-44
2024/03/23 05:00:55;;;;;;;29.25;18.70;;;;;;;9.77;88.03;99753.66;5133077;27;20050;-44
2024/03/23 05:03:22;;;;;;;30.83;18.00;;;;;;;9.86;87.68;99741.53;5131795;27;20051;-44
2024/03/23 05:05:48;;;;;;;28.50;18.35;;;;;;;9.95;87.10;99746.25;5133115;27;20074;-45
2024/03/23 05:08:16;;;;;;;28.08;17.95;;;;;;;9.98;86.93;99746.91;5133558;27;20047;-44
2024/03/23 05:10:43;;;;;;;28.77;18.02;;;;;;;9.91;87.66;99750.06;5133147;27;20502;-43
2024/03/23 05:13:10;;;;;;;29.42;18.42;;;;;;;9.99;87.20;99748.63;5132999;27;20058;-46
2024/03/23 05:15:38;;;;;;;27.40;17.27;;;;;;;9.93;87.21;99750.81;5133052;27;20418;-44
2024/03/23 05:18:06;;;;;;;31.42;18.05;;;;;;;10.03;86.86;99749.25;5132677;27;20047;-45
2024/03/23 05:20:32;;;;;;;28.88;17.50;;;;;;;10.02;86.78;99750.22;5132673;27;20096;-43
2024/03/23 05:23:00;;;;;;;27.30;17.40;;;;;;;10.13;86.30;99750.34;5132859;27;20100;-45
2024/03/23 05:25:26;;;;;;;26.58;17.23;;;;;;;10.16;85.76;99749.31;5132721;27;20134;-46
2024/03/23 05:27:53;;;;;;;28.58;17.98;;;;;;;10.14;86.10;99745.91;5133236;27;20058;-44
2024/03/23 05:30:20;;;;;;;28.23;16.88;;;;;;;10.10;86.54;99741.72;5132902;27;20059;-52
2024/03/23 05:32:49;;;;;;;27.95;17.05;;;;;;;10.07;86.89;99742.78;5132199;27;20084;-44
2024/03/23 05:35:15;;;;;;;29.02;17.35;;;;;;;10.19;86.50;99743.78;5132487;27;20124;-43
2024/03/23 05:37:42;;;;;;;28.80;17.83;;;;;;;10.12;87.17;99743.31;5132384;27;20135;-44
2024/03/23 05:40:10;;;;;;;33.60;18.50;;;;;;;10.14;86.82;99741.44;5132310;27;20058;-44
2024/03/23 05:42:37;;;;;;;35.33;18.80;;;;;;;10.05;87.25;99736.72;5132258;27;20051;-43
2024/03/23 05:45:06;;;;;;;29.20;17.65;;;;;;;9.99;87.85;99745.09;5132013;27;20047;-44
2024/03/23 05:47:33;;;;;;;31.05;18.25;;;;;;;10.02;88.19;99736.88;5132231;27;20043;-44
2024/03/23 05:50:01;;;;;;;31.63;19.05;;;;;;;10.08;87.88;99736.50;5131988;27;20040;-44
2024/03/23 05:52:29;;;;;;;32.72;19.50;;;;;;;10.01;88.43;99740.50;5131760;27;20484;-43
2024/03/23 05:54:55;;;;;;;31.48;19.83;;;;;;;10.06;88.13;99733.09;5131927;27;20054;-44
2024/03/23 05:57:23;;;;;;;35.83;19.33;;;;;;;9.98;88.55;99738.06;5131448;27;20075;-43
2024/03/23 05:59:49;;;;;;;32.55;18.80;;;;;;;10.10;88.07;99728.41;5131679;27;20171;-44
2024/03/23 06:02:17;;;;;;;34.42;19.38;;;;;;;10.08;87.66;99733.84;5131543;27;20043;-44
2024/03/23 06:04:45;;;;;;;28.88;18.77;;;;;;;10.22;87.42;99735.59;5131788;27;20048;-43
2024/03/23 06:07:14;;;;;;;31.80;19.73;;;;;;;10.15;87.78;99735.13;5131889;27;20054;-45
2024/03/23 06:09:41;;;;;;;31.00;19.17;;;;;;;10.10;88.43;99733.72;5131580;27;20039;-44
2024/03/23 06:12:08;;;;;;;33.17;20.05;;;;;;;9.96;90.10;99722.19;5131482;27;20143;-44
2024/03/23 06:14:35;;;;;;;32.92;19.98;;;;;;;10.03;89.44;99718.13;5130837;27;20487;-42
2024/03/23 06:17:05;;;;;;;36.00;20.20;;;;;;;10.21;88.89;99709.88;5131736;27;20555;-43
2024/03/23 06:19:32;;;;;;;32.97;20.25;;;;;;;10.27;88.78;99714.84;5131571;27;20134;-43
2024/03/23 06:21:59;;;;;;;35.45;19.77;;;;;;;10.41;87.99;99712.06;5131644;27;20056;-43
2024/03/23 06:24:27;;;;;;;33.70;20.33;;;;;;;10.57;87.10;99709.22;5131483;27;20188;-44
2024/03/23 06:26:54;;;;;;;30.67;19.50;;;;;;;10.62;86.88;99699.13;5131261;27;20043;-43
2024/03/23 06:29:21;;;;;;;32.83;20.77;;;;;;;10.71;86.58;99703.81;5131288;27;20126;-45
2024/03/23 06:31:55;;;;;;;33.55;19.85;;;;;;;10.72;86.78;99694.00;5131538;27;20055;-45
2024/03/23 06:34:22;;;;;;;33.58;19.67;;;;;;;10.96;85.84;99691.41;5131397;27;20045;-46
2024/03/23 06:36:49;;;;;;;30.88;19.30;;;;;;;11.25;84.35;99682.19;5131117;27;20050;-45
2024/03/23 06:39:15;;;;;;;33.40;20.50;;;;;;;11.41;83.67;99674.78;5131226;27;20161;-44
2024/03/23 06:41:52;;;;;;;34.97;20.65;;;;;;;11.35;83.14;99672.53;5114163;27;20062;-43
2024/03/23 06:44:19;;;;;;;33.25;19.90;;;;;;;11.26;83.70;99672.34;5130018;27;20054;-44
2024/03/23 06:46:47;;;;;;;32.17;20.80;;;;;;;11.08;85.22;99674.50;5129839;27;20143;-46
2024/03/23 06:49:13;;;;;;;33.70;21.42;;;;;;;11.17;84.54;99673.84;5129478;27;20082;-43
2024/03/23 06:51:41;;;;;;;32.50;20.48;;;;;;;11.34;83.48;99686.00;5129393;27;20067;-44
2024/03/23 06:54:08;;;;;;;32.35;20.30;;;;;;;11.49;82.57;99694.75;5129475;27;20518;-45
2024/03/23 06:56:35;;;;;;;33.88;20.63;;;;;;;11.60;81.96;99689.47;5129648;27;20066;-42
2024/03/23 06:59:03;;;;;;;32.58;20.25;;;;;;;11.66;82.28;99684.50;5129875;27;20051;-43
2024/03/23 07:01:30;;;;;;;31.88;19.30;;;;;;;11.63;81.88;99686.56;5128640;27;20086;-45
2024/03/23 07:03:56;;;;;;;28.10;19.08;;;;;;;11.67;80.71;99682.69;5130027;27;20067;-43
2024/03/23 07:06:23;;;;;;;29.33;18.52;;;;;;;11.78;80.51;99685.44;5129343;27;20540;-44
2024/03/23 07:08:50;;;;;;;33.88;20.30;;;;;;;11.72;80.73;99675.19;5129590;27;20097;-43
2024/03/23 07:11:20;;;;;;;33.20;20.05;;;;;;;11.84;80.18;99674.31;5128834;27;20069;-44
2024/03/23 07:13:49;;;;;;;34.13;19.73;;;;;;;11.90;79.35;99673.84;5128885;27;20078;-44
2024/03/23 07:16:18;;;;;;;32.72;19.85;;;;;;;12.02;79.05;99678.28;5113122;27;20138;-44
2024/03/23 07:18:44;;;;;;;33.63;20.27;;;;;;;12.14;79.07;99670.28;5129312;27;20077;-43
2024/03/23 07:21:12;;;;;;;29.63;19.10;;;;;;;12.09;79.03;99664.47;5127880;27;20081;-43
2024/03/23 07:23:44;;;;;;;30.63;19.67;;;;;;;12.24;77.62;99660.59;5129415;27;20058;-44
2024/03/23 07:26:12;;;;;;;28.58;19.60;;;;;;;12.51;77.59;99666.50;5128204;27;20047;-43
2024/03/23 07:28:42;;;;;;;32.35;20.05;;;;;;;12.73;76.65;99664.84;5129060;27;20044;-45
2024/03/23 07:31:11;;;;;;;31.58;19.17;;;;;;;12.84;75.80;99659.53;5128299;27;20047;-43
2024/03/23 07:33:44;;;;;;;28.70;18.27;;;;;;;12.91;74.80;99647.31;5128819;27;20047;-44
2024/03/23 07:36:11;;;;;;;29.38;19.55;;;;;;;12.92;74.57;99649.03;5129059;27;20047;-42
2024/03/23 07:38:37;;;;;;;29.20;19.23;;;;;;;12.97;74.65;99643.31;5128752;27;20060;-43
2024/03/23 07:41:06;;;;;;;29.75;19.13;;;;;;;13.18;73.75;99642.44;5127985;27;20069;-44
2024/03/23 07:43:32;;;;;;;28.10;18.10;;;;;;;13.25;73.37;99624.09;5129033;28;20050;-42
2024/03/23 07:46:00;;;;;;;27.20;18.15;;;;;;;13.25;73.15;99620.56;5128473;27;20047;-43
2024/03/23 07:48:28;;;;;;;29.23;18.83;;;;;;;13.45;72.65;99617.13;5128906;28;20062;-43
2024/03/23 07:51:01;;;;;;;29.45;18.92;;;;;;;13.49;72.23;99607.00;5127796;28;20135;-44
2024/03/23 07:53:28;;;;;;;31.40;19.40;;;;;;;13.59;72.30;99614.13;5120392;28;20051;-43
2024/03/23 07:55:56;;;;;;;29.48;18.60;;;;;;;13.48;72.51;99611.50;5129169;28;20141;-42
2024/03/23 07:58:22;;;;;;;29.08;18.38;;;;;;;13.48;72.96;99602.63;5128505;27;20043;-43
2024/03/23 08:00:50;;;;;;;27.02;18.17;;;;;;;13.49;72.60;99597.13;5127761;28;20156;-42
2024/03/23 08:03:16;;;;;;;30.88;19.17;;;;;;;13.58;73.36;99599.03;5128226;27;20039;-43
2024/03/23 08:05:43;;;;;;;27.98;17.33;;;;;;;13.68;72.40;99596.44;5128283;27;20051;-43
2024/03/23 08:08:11;;;;;;;26.50;17.23;;;;;;;13.70;72.38;99600.72;5126800;27;20066;-44
2024/03/23 08:10:38;;;;;;;26.55;17.15;;;;;;;13.79;71.62;99593.72;5124168;27;20039;-44
2024/03/23 08:13:05;;;;;;;25.80;16.90;;;;;;;13.98;71.66;99593.03;5125834;27;20454;-43
2024/03/23 08:15:33;;;;;;;27.20;17.48;;;;;;;14.04;71.29;99589.81;5121522;27;20059;-42
2024/03/23 08:18:00;;;;;;;27.00;17.98;;;;;;;14.08;70.87;99588.56;5122077;27;20048;-44
2024/03/23 08:20:28;;;;;;;26.25;17.48;;;;;;;14.09;71.46;99595.66;5127699;27;20043;-43
2024/03/23 08:22:54;;;;;;;27.15;16.95;;;;;;;14.33;70.20;99580.13;5123175;28;20048;-45
2024/03/23 08:25:22;;;;;;;23.92;16.83;;;;;;;14.37;70.16;99586.06;5128582;27;20047;-44
2024/03/23 08:27:49;;;;;;;27.77;16.92;;;;;;;14.46;70.03;99584.47;5128866;28;20055;-42
2024/03/23 08:30:16;;;;;;;26.85;16.85;;;;;;;14.58;69.32;99578.06;5127481;27;20104;-43
2024/03/23 08:32:43;;;;;;;24.92;16.45;;;;;;;14.53;68.80;99573.06;5128513;27;20039;-42
2024/03/23 08:35:10;;;;;;;25.58;17.23;;;;;;;14.66;68.75;99572.84;5128170;28;20499;-44
2024/03/23 08:37:36;;;;;;;24.15;16.23;;;;;;;14.81;68.42;99563.44;5130569;27;20043;-51
2024/03/23 08:40:04;;;;;;;24.67;15.77;;;;;;;14.74;68.10;99558.75;5131082;27;20103;-45
2024/03/23 08:42:32;;;;;;;21.80;15.15;;;;;;;14.71;68.12;99559.88;5132263;27;20496;-44
2024/03/23 08:44:59;;;;;;;23.13;15.20;;;;;;;14.87;67.44;99559.38;5132335;27;20384;-44
2024/03/23 08:47:25;;;;;;;22.35;15.18;;;;;;;14.92;67.29;99557.13;5132294;27;20106;-44
2024/03/23 08:49:52;;;;;;;23.73;15.77;;;;;;;15.02;66.97;99552.63;5131239;27;20499;-45
2024/03/23 08:52:18;;;;;;;22.38;15.35;;;;;;;15.06;67.24;99548.69;5132385;27;20384;-44
2024/03/23 08:54:46;;;;;;;23.85;15.27;;;;;;;15.17;66.65;99548.56;5131773;27;20707;-44
2024/03/23 08:57:15;;;;;;;22.80;15.25;;;;;;;15.19;66.75;99543.06;5132301;27;20050;-43
2024/03/23 08:59:44;;;;;;;22.45;15.45;;;;;;;15.37;66.04;99549.44;5130431;27;20047;-44
2024/03/23 09:02:10;;;;;;;24.25;16.35;;;;;;;15.54;66.19;99541.66;5131908;27;20108;-42
2024/03/23 09:04:37;;;;;;;25.17;15.02;;;;;;;15.68;65.60;99543.97;5131974;27;20697;-46
2024/03/23 09:07:04;;;;;;;20.92;15.32;;;;;;;15.84;65.16;99538.03;5131310;27;20043;-45
2024/03/23 09:09:31;;;;;;;20.27;14.52;;;;;;;15.97;64.84;99539.41;5130971;27;20050;-44
2024/03/23 09:11:57;;;;;;;26.90;14.80;;;;;;;16.11;63.83;99529.19;5131670;27;20051;-44
2024/03/23 09:14:24;;;;;;;21.75;14.65;;;;;;;16.31;63.74;99523.63;5131075;27;20069;-44
2024/03/23 09:16:52;;;;;;;22.63;13.50;;;;;;;16.56;63.26;99524.81;5131910;27;20073;-43
2024/03/23 09:19:19;;;;;;;20.45;13.98;;;;;;;16.92;61.97;99513.34;5131598;27;20139;-45
2024/03/23 09:21:46;;;;;;;24.23;14.68;;;;;;;17.25;61.31;99514.53;5131013;27;20519;-47
2024/03/23 09:24:13;;;;;;;18.73;13.75;;;;;;;17.26;60.55;99500.06;5114788;27;20072;-43
2024/03/23 09:26:39;;;;;;;18.88;13.15;;;;;;;17.45;59.76;99499.91;5131801;27;20073;-43
2024/03/23 09:29:06;;;;;;;19.08;13.75;;;;;;;17.49;59.44;99495.06;5131837;27;20392;-45
2024/03/23 09:31:33;;;;;;;19.58;13.63;;;;;;;17.50;59.50;99486.81;5130480;27;20047;-44
2024/03/23 09:34:02;;;;;;;19.90;13.57;;;;;;;17.73;59.36;99488.03;5131361;27;20083;-45
2024/03/23 09:36:28;;;;;;;17.65;13.27;;;;;;;17.74;59.46;99483.50;5131421;27;20051;-42
2024/03/23 09:38:55;;;;;;;20.35;13.65;;;;;;;17.78;58.91;99481.34;5131347;27;20525;-43
2024/03/23 09:41:22;;;;;;;21.25;13.48;;;;;;;17.98;58.28;99469.34;5129952;27;20145;-43
2024/03/23 09:43:49;;;;;;;17.65;12.77;;;;;;;18.25;57.29;99468.34;5131051;27;20514;-44
2024/03/23 09:46:15;;;;;;;18.45;13.25;;;;;;;18.26;57.86;99459.25;5131070;27;20488;-43
2024/03/23 09:48:46;;;;;;;18.60;12.45;;;;;;;18.29;57.66;99458.91;5130318;27;20050;-43
2024/03/23 09:51:13;;;;;;;19.02;13.15;;;;;;;18.22;57.36;99453.28;5129914;27;20094;-44
2024/03/23 09:53:41;;;;;;;18.92;13.32;;;;;;;18.23;57.30;99456.84;5130950;27;20047;-44
2024/03/23 09:56:08;;;;;;;17.10;12.73;;;;;;;18.18;57.80;99449.25;5131271;27;20405;-45
2024/03/23 09:58:35;;;;;;;18.17;12.75;;;;;;;18.28;57.99;99443.72;5131135;27;20091;-43
2024/03/23 10:01:03;;;;;;;18.35;12.90;;;;;;;18.48;58.15;99436.22;5129451;27;20082;-44
2024/03/23 10:03:30;;;;;;;20.35;11.23;;;;;;;18.61;58.04;99433.91;5130740;27;20085;-45
2024/03/23 10:06:04;;;;;;;22.23;11.57;;;;;;;18.86;56.60;99427.59;5130340;27;20424;-45
2024/03/23 10:08:35;;;;;;;18.17;11.57;;;;;;;19.07;56.71;99429.00;5130395;27;20047;-50
2024/03/23 10:11:13;;;;;;;13.02;8.48;;;;;;;19.37;56.19;99425.63;5129531;27;20043;-46
2024/03/23 10:13:42;;;;;;;13.57;9.25;;;;;;;19.61;54.79;99415.88;5130024;27;20385;-59
2024/03/23 10:16:10;;;;;;;12.82;8.85;;;;;;;19.65;53.31;99417.22;5130647;27;20043;-43
2024/03/23 10:18:40;;;;;;;14.32;9.43;;;;;;;19.88;51.64;99399.28;5130439;27;20051;-44
2024/03/23 10:21:08;;;;;;;14.93;7.50;;;;;;;19.93;50.45;99405.00;5129507;27;20051;-46
2024/03/23 10:23:38;;;;;;;16.25;8.07;;;;;;;19.81;49.47;99406.38;5130215;27;20042;-44
2024/03/23 10:26:16;;;;;;;13.75;7.00;;;;;;;19.58;48.74;99394.56;5130350;27;20047;-47
2024/03/23 10:28:54;;;;;;;14.77;6.78;;;;;;;19.91;48.72;99390.78;5130400;27;20050;-48
2024/03/23 10:31:20;;;;;;;13.57;6.10;;;;;;;20.17;49.10;99378.84;5129060;27;21202;-50
2024/03/23 10:33:48;;;;;;;8.90;5.82;;;;;;;20.33;47.30;99388.78;5130120;27;20093;-45
2024/03/23 10:36:14;;;;;;;10.73;5.85;;;;;;;20.23;47.63;99387.13;5130684;27;20047;-45
2024/03/23 10:38:44;;;;;;;12.07;5.82;;;;;;;20.20;48.24;99383.94;5130920;27;20484;-47
2024/03/23 10:41:11;;;;;;;10.95;6.97;;;;;;;20.13;48.37;99375.66;5129980;27;20177;-44
2024/03/23 10:43:39;;;;;;;13.07;6.68;;;;;;;20.09;47.82;99365.38;5130497;27;20043;-46
2024/03/23 10:46:06;;;;;;;8.10;5.43;;;;;;;20.15;48.32;99360.09;5130704;27;20075;-44
2024/03/23 10:48:33;;;;;;;11.18;6.63;;;;;;;20.15;49.16;99351.97;5131049;27;20078;-44
2024/03/23 10:51:00;;;;;;;9.32;6.15;;;;;;;20.16;48.70;99340.09;5128919;27;20116;-49
2024/03/23 10:53:28;;;;;;;11.18;5.90;;;;;;;20.04;48.68;99346.09;5130526;27;20043;-44
2024/03/23 10:55:57;;;;;;;11.15;5.55;;;;;;;20.11;47.83;99344.38;5130051;27;20065;-45
2024/03/23 10:58:30;;;;;;;9.30;6.00;;;;;;;20.01;47.03;99337.31;5129915;27;20047;-43
2024/03/23 11:00:56;;;;;;;10.85;5.85;;;;;;;20.17;46.71;99340.94;5128805;27;20057;-45
2024/03/23 11:03:37;;;;;;;10.63;5.38;;;;;;;20.30;46.85;99331.25;5129880;27;20524;-41
2024/03/23 11:06:04;;;;;;;11.10;5.40;;;;;;;20.34;47.34;99326.31;5129683;27;20047;-42
2024/03/23 11:08:33;;;;;;;8.73;5.70;;;;;;;20.37;46.92;99320.56;5129786;27;20426;-45
2024/03/23 11:11:19;;;;;;;11.10;5.93;;;;;;;20.36;46.11;99318.84;5122836;27;20495;-42
2024/03/23 11:13:49;;;;;;;8.68;5.25;;;;;;;20.41;46.03;99310.22;5129569;27;20575;-43
2024/03/23 11:16:22;;;;;;;13.98;6.13;;;;;;;20.53;45.62;99315.06;5129228;27;20069;-43
2024/03/23 11:18:50;;;;;;;11.88;6.20;;;;;;;20.52;45.74;99302.56;5129385;27;20043;-43
2024/03/23 11:21:54;;;;;;;8.60;5.57;;;;;;;20.45;46.41;99301.56;5128304;27;20043;-44
2024/03/23 11:24:22;;;;;;;9.80;5.38;;;;;;;20.53;45.77;99298.81;5129836;27;20443;-44